sensor_id;sensor_type;location;lat;lon;timestamp;temperature;humidity
21805;DHT22;11064;47.102;15.452;2023-01-19T05:02:36;1.00;99.90
21805;DHT22;11064;47.102;15.452;2023-01-19T05:05:04;1.00;99.90
21805;DHT22;11064;47.102;15.452;2023-01-19T05:07:30;1.00;99.90
21805;DHT22;11064;47.102;15.452;2023-01-19T05:09:56;0.90;99.90
21805;DHT22;11064;47.102;15.452;2023-01-19T05:12:21;0.80;99.90
21805;DHT22;11064;47.102;15.452;2023-01-19T05:14:47;0.80;99.90
21805;DHT22;11064;47.102;15.452;2023-01-19T05:17:13;0.80;99.90
21805;DHT22;11064;47.102;15.452;2023-01-19T05:19:39;0.80;99.90
21805;DHT22;11064;47.102;15.452;2023-01-19T05:22:05;0.80;99.90
21805;DHT22;11064;47.102;15.452;2023-01-19T05:24:31;0.90;99.90
21805;DHT22;11064;47.102;15.452;2023-01-19T05:26:57;0.90;99.90
21805;DHT22;11064;47.102;15.452;2023-01-19T05:29:23;0.90;99.90
21805;DHT22;11064;47.102;15.452;2023-01-19T05:31:49;0.90;99.90
21805;DHT22;11064;47.102;15.452;2023-01-19T05:34:15;0.90;99.90
21805;DHT22;11064;47.102;15.452;2023-01-19T05:36:41;0.90;99.90
21805;DHT22;11064;47.102;15.452;2023-01-19T05:39:07;0.90;99.90
21805;DHT22;11064;47.102;15.452;2023-01-19T05:41:33;0.90;99.90
21805;DHT22;11064;47.102;15.452;2023-01-19T05:43:59;1.00;99.90
21805;DHT22;11064;47.102;15.452;2023-01-19T05:46:25;1.10;99.90
21805;DHT22;11064;47.102;15.452;2023-01-19T05:48:51;1.10;99.90
21805;DHT22;11064;47.102;15.452;2023-01-19T05:51:17;1.10;99.90
21805;DHT22;11064;47.102;15.452;2023-01-19T05:53:43;1.00;99.90
21805;DHT22;11064;47.102;15.452;2023-01-19T05:56:09;1.00;99.90
21805;DHT22;11064;47.102;15.452;2023-01-19T05:58:36;1.00;99.90
21805;DHT22;11064;47.102;15.452;2023-01-19T06:01:05;1.00;99.90
21805;DHT22;11064;47.102;15.452;2023-01-19T06:03:34;1.00;99.90
21805;DHT22;11064;47.102;15.452;2023-01-19T06:06:00;1.00;99.90
21805;DHT22;11064;47.102;15.452;2023-01-19T06:08:28;1.00;99.90
21805;DHT22;11064;47.102;15.452;2023-01-19T06:10:54;1.00;99.90
21805;DHT22;11064;47.102;15.452;2023-01-19T06:13:20;1.00;99.90
21805;DHT22;11064;47.102;15.452;2023-01-19T06:15:46;1.00;99.90
21805;DHT22;11064;47.102;15.452;2023-01-19T06:18:13;1.00;99.90
21805;DHT22;11064;47.102;15.452;2023-01-19T06:20:42;1.00;99.90
21805;DHT22;11064;47.102;15.452;2023-01-19T06:23:07;1.00;99.90
21805;DHT22;11064;47.102;15.452;2023-01-19T06:25:35;1.00;99.90
21805;DHT22;11064;47.102;15.452;2023-01-19T06:28:00;1.10;99.90
21805;DHT22;11064;47.102;15.452;2023-01-19T06:30:26;1.10;99.90
21805;DHT22;11064;47.102;15.452;2023-01-19T06:32:53;1.10;99.90
21805;DHT22;11064;47.102;15.452;2023-01-19T06:35:19;1.10;99.90
21805;DHT22;11064;47.102;15.452;2023-01-19T06:37:45;1.10;99.90
21805;DHT22;11064;47.102;15.452;2023-01-19T06:40:11;1.10;99.90
21805;DHT22;11064;47.102;15.452;2023-01-19T06:42:37;1.10;99.90
21805;DHT22;11064;47.102;15.452;2023-01-19T06:45:03;1.20;99.90
21805;DHT22;11064;47.102;15.452;2023-01-19T06:47:29;1.20;99.90
21805;DHT22;11064;47.102;15.452;2023-01-19T06:49:55;1.20;99.90
21805;DHT22;11064;47.102;15.452;2023-01-19T06:52:21;1.10;99.90
21805;DHT22;11064;47.102;15.452;2023-01-19T06:54:47;1.10;99.90
21805;DHT22;11064;47.102;15.452;2023-01-19T06:57:13;1.20;99.90
21805;DHT22;11064;47.102;15.452;2023-01-19T06:59:40;1.20;99.90
21805;DHT22;11064;47.102;15.452;2023-01-19T07:02:06;1.20;99.90
21805;DHT22;11064;47.102;15.452;2023-01-19T07:04:34;1.20;99.90
21805;DHT22;11064;47.102;15.452;2023-01-19T07:07:00;1.20;99.90
21805;DHT22;11064;47.102;15.452;2023-01-19T07:09:26;1.20;99.90
21805;DHT22;11064;47.102;15.452;2023-01-19T07:11:53;1.20;99.90
21805;DHT22;11064;47.102;15.452;2023-01-19T07:14:19;1.20;99.90
21805;DHT22;11064;47.102;15.452;2023-01-19T07:16:45;1.30;99.90
21805;DHT22;11064;47.102;15.452;2023-01-19T07:19:12;1.40;99.90
21805;DHT22;11064;47.102;15.452;2023-01-19T07:21:39;1.40;99.90
21805;DHT22;11064;47.102;15.452;2023-01-19T07:24:05;1.40;99.90
21805;DHT22;11064;47.102;15.452;2023-01-19T07:26:31;1.40;99.90
21805;DHT22;11064;47.102;15.452;2023-01-19T07:28:56;1.50;99.90
21805;DHT22;11064;47.102;15.452;2023-01-19T07:31:22;1.40;99.90
21805;DHT22;11064;47.102;15.452;2023-01-19T07:33:48;1.40;99.90
21805;DHT22;11064;47.102;15.452;2023-01-19T07:36:14;1.50;99.90
21805;DHT22;11064;47.102;15.452;2023-01-19T07:38:40;1.40;99.90
21805;DHT22;11064;47.102;15.452;2023-01-19T07:41:08;1.40;99.90
21805;DHT22;11064;47.102;15.452;2023-01-19T07:43:35;1.50;99.90
21805;DHT22;11064;47.102;15.452;2023-01-19T07:46:03;1.50;99.90
21805;DHT22;11064;47.102;15.452;2023-01-19T07:48:30;1.40;99.90
21805;DHT22;11064;47.102;15.452;2023-01-19T07:51:00;1.40;99.90
21805;DHT22;11064;47.102;15.452;2023-01-19T07:53:26;1.50;99.90
21805;DHT22;11064;47.102;15.452;2023-01-19T07:55:55;1.50;99.90
21805;DHT22;11064;47.102;15.452;2023-01-19T07:58:22;1.50;99.90
21805;DHT22;11064;47.102;15.452;2023-01-19T08:00:48;1.50;99.90
21805;DHT22;11064;47.102;15.452;2023-01-19T08:03:15;1.50;99.90
21805;DHT22;11064;47.102;15.452;2023-01-19T08:05:42;1.50;99.90
21805;DHT22;11064;47.102;15.452;2023-01-19T08:08:08;1.50;99.90
21805;DHT22;11064;47.102;15.452;2023-01-19T08:10:36;1.50;99.90
21805;DHT22;11064;47.102;15.452;2023-01-19T08:13:02;1.50;99.90
21805;DHT22;11064;47.102;15.452;2023-01-19T08:15:27;1.60;99.90
21805;DHT22;11064;47.102;15.452;2023-01-19T08:17:56;1.60;99.90
21805;DHT22;11064;47.102;15.452;2023-01-19T08:20:23;1.70;99.90
21805;DHT22;11064;47.102;15.452;2023-01-19T08:22:49;1.70;99.90
21805;DHT22;11064;47.102;15.452;2023-01-19T08:25:15;1.80;99.90
21805;DHT22;11064;47.102;15.452;2023-01-19T08:27:41;1.80;99.90
21805;DHT22;11064;47.102;15.452;2023-01-19T08:30:07;1.90;99.90
21805;DHT22;11064;47.102;15.452;2023-01-19T08:32:33;2.00;99.90
21805;DHT22;11064;47.102;15.452;2023-01-19T08:34:59;2.20;99.90
21805;DHT22;11064;47.102;15.452;2023-01-19T08:37:25;2.10;99.90
21805;DHT22;11064;47.102;15.452;2023-01-19T08:39:51;2.10;99.90
21805;DHT22;11064;47.102;15.452;2023-01-19T08:42:18;2.20;99.90
21805;DHT22;11064;47.102;15.452;2023-01-19T08:44:44;2.20;99.90
21805;DHT22;11064;47.102;15.452;2023-01-19T08:47:09;2.20;99.90
21805;DHT22;11064;47.102;15.452;2023-01-19T08:49:35;2.20;99.90
21805;DHT22;11064;47.102;15.452;2023-01-19T08:52:01;2.10;99.90
21805;DHT22;11064;47.102;15.452;2023-01-19T08:54:27;2.20;99.90
21805;DHT22;11064;47.102;15.452;2023-01-19T08:56:53;2.30;99.90
21805;DHT22;11064;47.102;15.452;2023-01-19T08:59:19;2.40;99.90
21805;DHT22;11064;47.102;15.452;2023-01-19T09:01:45;2.60;99.90
21805;DHT22;11064;47.102;15.452;2023-01-19T09:04:11;2.80;99.90
21805;DHT22;11064;47.102;15.452;2023-01-19T09:06:37;2.90;99.90
21805;DHT22;11064;47.102;15.452;2023-01-19T09:09:03;2.90;99.90
21805;DHT22;11064;47.102;15.452;2023-01-19T09:11:29;2.90;99.90
21805;DHT22;11064;47.102;15.452;2023-01-19T09:13:55;3.00;99.90
21805;DHT22;11064;47.102;15.452;2023-01-19T09:16:21;3.00;99.90
21805;DHT22;11064;47.102;15.452;2023-01-19T09:18:47;3.10;99.90
21805;DHT22;11064;47.102;15.452;2023-01-19T09:21:14;3.10;99.90
21805;DHT22;11064;47.102;15.452;2023-01-19T09:23:40;3.10;99.90
21805;DHT22;11064;47.102;15.452;2023-01-19T09:26:06;3.10;99.90
21805;DHT22;11064;47.102;15.452;2023-01-19T09:28:32;3.00;99.90
21805;DHT22;11064;47.102;15.452;2023-01-19T09:30:58;2.90;99.90
21805;DHT22;11064;47.102;15.452;2023-01-19T09:33:24;2.90;99.90
21805;DHT22;11064;47.102;15.452;2023-01-19T09:35:50;3.10;99.90
21805;DHT22;11064;47.102;15.452;2023-01-19T09:38:17;3.20;99.90
21805;DHT22;11064;47.102;15.452;2023-01-19T09:40:50;3.30;99.90
21805;DHT22;11064;47.102;15.452;2023-01-19T09:46:23;3.30;99.90
21805;DHT22;11064;47.102;15.452;2023-01-19T09:48:53;3.20;99.90
21805;DHT22;11064;47.102;15.452;2023-01-19T09:51:27;3.30;99.90
21805;DHT22;11064;47.102;15.452;2023-01-19T09:56:22;3.40;99.90
21805;DHT22;11064;47.102;15.452;2023-01-19T09:58:50;3.50;99.90
21805;DHT22;11064;47.102;15.452;2023-01-19T10:01:32;3.40;99.90
21805;DHT22;11064;47.102;15.452;2023-01-19T10:04:37;3.40;99.90
21805;DHT22;11064;47.102;15.452;2023-01-19T10:07:35;3.40;99.90
21805;DHT22;11064;47.102;15.452;2023-01-19T10:10:22;3.20;99.90
21805;DHT22;11064;47.102;15.452;2023-01-19T10:15:35;3.10;99.90
21805;DHT22;11064;47.102;15.452;2023-01-19T10:18:09;3.20;99.90
21805;DHT22;11064;47.102;15.452;2023-01-19T10:20:43;3.20;99.90
21805;DHT22;11064;47.102;15.452;2023-01-19T10:26:25;3.10;99.80
21805;DHT22;11064;47.102;15.452;2023-01-19T10:28:58;3.20;99.90
21805;DHT22;11064;47.102;15.452;2023-01-19T10:31:26;3.10;99.90
21805;DHT22;11064;47.102;15.452;2023-01-19T10:33:53;3.00;99.90
21805;DHT22;11064;47.102;15.452;2023-01-19T10:36:34;2.90;99.90
21805;DHT22;11064;47.102;15.452;2023-01-19T10:39:03;2.80;99.90
21805;DHT22;11064;47.102;15.452;2023-01-19T10:41:42;2.80;99.90
21805;DHT22;11064;47.102;15.452;2023-01-19T10:44:09;2.80;99.90
21805;DHT22;11064;47.102;15.452;2023-01-19T10:46:45;2.70;99.90
21805;DHT22;11064;47.102;15.452;2023-01-19T10:51:59;2.60;99.90
21805;DHT22;11064;47.102;15.452;2023-01-19T10:54:28;2.50;99.90
21805;DHT22;11064;47.102;15.452;2023-01-19T10:57:00;2.40;99.90
21805;DHT22;11064;47.102;15.452;2023-01-19T10:59:46;2.40;99.90
21805;DHT22;11064;47.102;15.452;2023-01-19T11:02:32;2.50;99.90
21805;DHT22;11064;47.102;15.452;2023-01-19T11:05:00;2.40;99.90
21805;DHT22;11064;47.102;15.452;2023-01-19T11:17:48;2.50;99.90
21805;DHT22;11064;47.102;15.452;2023-01-19T11:20:20;2.50;99.90
21805;DHT22;11064;47.102;15.452;2023-01-19T11:22:48;2.50;99.90
21805;DHT22;11064;47.102;15.452;2023-01-19T11:25:31;2.60;99.90
21805;DHT22;11064;47.102;15.452;2023-01-19T11:27:58;2.60;99.90
21805;DHT22;11064;47.102;15.452;2023-01-19T11:30:25;2.70;99.90
21805;DHT22;11064;47.102;15.452;2023-01-19T11:32:52;2.70;99.90
21805;DHT22;11064;47.102;15.452;2023-01-19T11:35:37;2.80;99.90
21805;DHT22;11064;47.102;15.452;2023-01-19T11:38:16;2.70;99.90
21805;DHT22;11064;47.102;15.452;2023-01-19T11:40:55;2.70;99.90
21805;DHT22;11064;47.102;15.452;2023-01-19T11:43:28;2.60;99.90
21805;DHT22;11064;47.102;15.452;2023-01-19T11:45:55;2.50;99.90
21805;DHT22;11064;47.102;15.452;2023-01-19T11:48:42;2.40;99.90
21805;DHT22;11064;47.102;15.452;2023-01-19T11:51:13;2.50;99.90
21805;DHT22;11064;47.102;15.452;2023-01-19T11:53:42;2.50;99.90
21805;DHT22;11064;47.102;15.452;2023-01-19T11:56:13;2.40;99.90
21805;DHT22;11064;47.102;15.452;2023-01-19T11:58:43;2.30;99.90
21805;DHT22;11064;47.102;15.452;2023-01-19T12:01:31;2.30;99.90
21805;DHT22;11064;47.102;15.452;2023-01-19T12:04:15;2.20;99.90
21805;DHT22;11064;47.102;15.452;2023-01-19T12:06:50;2.20;99.90
21805;DHT22;11064;47.102;15.452;2023-01-19T12:09:29;2.20;99.90
21805;DHT22;11064;47.102;15.452;2023-01-19T12:12:07;2.20;99.90
21805;DHT22;11064;47.102;15.452;2023-01-19T12:17:15;2.20;99.90
21805;DHT22;11064;47.102;15.452;2023-01-19T12:19:56;2.30;99.90
21805;DHT22;11064;47.102;15.452;2023-01-19T12:22:26;2.20;99.90
21805;DHT22;11064;47.102;15.452;2023-01-19T12:24:54;2.30;99.90
21805;DHT22;11064;47.102;15.452;2023-01-19T12:30:08;2.30;99.90
21805;DHT22;11064;47.102;15.452;2023-01-19T12:32:36;2.20;99.90
21805;DHT22;11064;47.102;15.452;2023-01-19T12:35:02;2.10;99.90
21805;DHT22;11064;47.102;15.452;2023-01-19T12:37:41;2.00;99.90
21805;DHT22;11064;47.102;15.452;2023-01-19T12:42:49;2.00;99.90
21805;DHT22;11064;47.102;15.452;2023-01-19T12:45:16;2.00;99.90
21805;DHT22;11064;47.102;15.452;2023-01-19T12:47:54;2.00;99.90
21805;DHT22;11064;47.102;15.452;2023-01-19T12:50:22;2.00;99.90
21805;DHT22;11064;47.102;15.452;2023-01-19T12:52:55;2.00;99.90
21805;DHT22;11064;47.102;15.452;2023-01-19T12:55:31;2.10;99.90
21805;DHT22;11064;47.102;15.452;2023-01-19T12:58:16;2.10;99.90
21805;DHT22;11064;47.102;15.452;2023-01-19T13:01:10;2.10;99.90
21805;DHT22;11064;47.102;15.452;2023-01-19T13:03:46;2.10;99.90
21805;DHT22;11064;47.102;15.452;2023-01-19T13:09:31;2.20;99.90
21805;DHT22;11064;47.102;15.452;2023-01-19T13:14:39;2.60;99.90
21805;DHT22;11064;47.102;15.452;2023-01-19T13:17:18;2.90;99.90
21805;DHT22;11064;47.102;15.452;2023-01-19T13:19:54;2.90;99.90
21805;DHT22;11064;47.102;15.452;2023-01-19T13:22:48;2.90;99.90
21805;DHT22;11064;47.102;15.452;2023-01-19T13:25:30;3.00;99.90
21805;DHT22;11064;47.102;15.452;2023-01-19T13:27:58;3.10;99.90
21805;DHT22;11064;47.102;15.452;2023-01-19T13:30:27;3.20;99.90
21805;DHT22;11064;47.102;15.452;2023-01-19T13:33:05;3.20;99.90
21805;DHT22;11064;47.102;15.452;2023-01-19T13:35:33;3.10;99.90
21805;DHT22;11064;47.102;15.452;2023-01-19T13:37:59;3.00;99.90
21805;DHT22;11064;47.102;15.452;2023-01-19T13:40:35;2.90;99.90
21805;DHT22;11064;47.102;15.452;2023-01-19T13:43:24;2.90;99.90
21805;DHT22;11064;47.102;15.452;2023-01-19T13:45:51;2.70;99.90
21805;DHT22;11064;47.102;15.452;2023-01-19T13:48:21;2.60;99.90
21805;DHT22;11064;47.102;15.452;2023-01-19T13:51:04;2.40;99.90
21805;DHT22;11064;47.102;15.452;2023-01-19T13:53:31;2.20;99.90
21805;DHT22;11064;47.102;15.452;2023-01-19T13:56:11;2.00;99.90
21805;DHT22;11064;47.102;15.452;2023-01-19T13:58:40;2.00;99.90
21805;DHT22;11064;47.102;15.452;2023-01-19T14:01:21;1.90;99.90
21805;DHT22;11064;47.102;15.452;2023-01-19T14:03:47;1.90;99.90
21805;DHT22;11064;47.102;15.452;2023-01-19T14:06:38;1.90;99.90
21805;DHT22;11064;47.102;15.452;2023-01-19T14:09:17;1.90;99.90
21805;DHT22;11064;47.102;15.452;2023-01-19T14:11:45;1.80;99.90
21805;DHT22;11064;47.102;15.452;2023-01-19T14:14:23;1.80;99.90
21805;DHT22;11064;47.102;15.452;2023-01-19T14:16:49;1.80;99.90
21805;DHT22;11064;47.102;15.452;2023-01-19T14:19:15;1.80;99.90
21805;DHT22;11064;47.102;15.452;2023-01-19T14:21:41;1.80;99.90
21805;DHT22;11064;47.102;15.452;2023-01-19T14:26:49;1.90;99.90
21805;DHT22;11064;47.102;15.452;2023-01-19T14:29:28;1.90;99.90
21805;DHT22;11064;47.102;15.452;2023-01-19T14:34:51;1.90;99.90
21805;DHT22;11064;47.102;15.452;2023-01-19T14:37:26;1.90;99.90
21805;DHT22;11064;47.102;15.452;2023-01-19T14:40:02;1.90;99.90
21805;DHT22;11064;47.102;15.452;2023-01-19T14:43:17;1.90;99.90
21805;DHT22;11064;47.102;15.452;2023-01-19T14:45:37;1.80;99.90
21805;DHT22;11064;47.102;15.452;2023-01-19T14:48:19;1.90;99.90
21805;DHT22;11064;47.102;15.452;2023-01-19T14:50:47;1.80;99.90
21805;DHT22;11064;47.102;15.452;2023-01-19T14:53:18;1.80;99.90
21805;DHT22;11064;47.102;15.452;2023-01-19T14:55:56;1.80;99.90
21805;DHT22;11064;47.102;15.452;2023-01-19T14:58:25;1.80;99.90
21805;DHT22;11064;47.102;15.452;2023-01-19T15:00:51;1.70;99.90
21805;DHT22;11064;47.102;15.452;2023-01-19T15:03:21;1.80;99.90
21805;DHT22;11064;47.102;15.452;2023-01-19T15:05:49;1.70;99.90
21805;DHT22;11064;47.102;15.452;2023-01-19T15:08:31;1.60;99.90
21805;DHT22;11064;47.102;15.452;2023-01-19T15:11:11;1.70;99.90
21805;DHT22;11064;47.102;15.452;2023-01-19T15:13:39;1.60;99.90
21805;DHT22;11064;47.102;15.452;2023-01-19T15:16:06;1.60;99.90
21805;DHT22;11064;47.102;15.452;2023-01-19T15:18:34;1.70;99.90
21805;DHT22;11064;47.102;15.452;2023-01-19T15:21:00;1.60;99.90
21805;DHT22;11064;47.102;15.452;2023-01-19T15:23:28;1.60;99.90
21805;DHT22;11064;47.102;15.452;2023-01-19T15:25:58;1.60;99.90
21805;DHT22;11064;47.102;15.452;2023-01-19T15:28:25;1.60;99.90
21805;DHT22;11064;47.102;15.452;2023-01-19T15:30:51;1.50;99.90
21805;DHT22;11064;47.102;15.452;2023-01-19T15:33:22;1.40;99.90
21805;DHT22;11064;47.102;15.452;2023-01-19T15:35:48;1.40;99.90
21805;DHT22;11064;47.102;15.452;2023-01-19T15:38:15;1.30;99.90
21805;DHT22;11064;47.102;15.452;2023-01-19T15:40:46;1.30;99.90
21805;DHT22;11064;47.102;15.452;2023-01-19T15:43:12;1.20;99.90
21805;DHT22;11064;47.102;15.452;2023-01-19T15:45:48;1.20;99.90
21805;DHT22;11064;47.102;15.452;2023-01-19T15:48:15;1.10;99.90
21805;DHT22;11064;47.102;15.452;2023-01-19T15:50:43;1.00;99.90
21805;DHT22;11064;47.102;15.452;2023-01-19T15:53:18;0.90;99.90
21805;DHT22;11064;47.102;15.452;2023-01-19T15:55:47;0.80;99.90
21805;DHT22;11064;47.102;15.452;2023-01-19T15:58:14;0.70;99.90
21805;DHT22;11064;47.102;15.452;2023-01-19T16:00:40;0.50;99.90
21805;DHT22;11064;47.102;15.452;2023-01-19T16:03:06;0.40;99.90
21805;DHT22;11064;47.102;15.452;2023-01-19T16:05:32;0.40;99.90
21805;DHT22;11064;47.102;15.452;2023-01-19T16:07:58;0.40;99.90
21805;DHT22;11064;47.102;15.452;2023-01-19T16:10:24;0.40;99.90
21805;DHT22;11064;47.102;15.452;2023-01-19T16:12:50;0.40;99.90
21805;DHT22;11064;47.102;15.452;2023-01-19T16:15:17;0.40;99.90
21805;DHT22;11064;47.102;15.452;2023-01-19T16:17:43;0.40;99.90
21805;DHT22;11064;47.102;15.452;2023-01-19T16:20:10;0.40;99.90
21805;DHT22;11064;47.102;15.452;2023-01-19T16:22:37;0.30;99.90
21805;DHT22;11064;47.102;15.452;2023-01-19T16:25:04;0.10;99.90
21805;DHT22;11064;47.102;15.452;2023-01-19T16:27:30;0.00;99.90
21805;DHT22;11064;47.102;15.452;2023-01-19T16:29:55;-0.10;99.90
21805;DHT22;11064;47.102;15.452;2023-01-19T16:32:24;-0.20;99.90
21805;DHT22;11064;47.102;15.452;2023-01-19T16:34:50;-0.30;99.90
21805;DHT22;11064;47.102;15.452;2023-01-19T16:37:16;-0.30;99.90
21805;DHT22;11064;47.102;15.452;2023-01-19T16:39:42;-0.40;99.90
21805;DHT22;11064;47.102;15.452;2023-01-19T16:42:10;-0.50;99.90
21805;DHT22;11064;47.102;15.452;2023-01-19T16:44:36;-0.60;99.90
21805;DHT22;11064;47.102;15.452;2023-01-19T16:47:02;-0.70;99.90
21805;DHT22;11064;47.102;15.452;2023-01-19T16:49:29;-0.70;99.90
21805;DHT22;11064;47.102;15.452;2023-01-19T16:51:55;-0.80;99.90
21805;DHT22;11064;47.102;15.452;2023-01-19T16:54:23;-0.90;99.90
21805;DHT22;11064;47.102;15.452;2023-01-19T16:56:54;-1.00;99.90
21805;DHT22;11064;47.102;15.452;2023-01-19T16:59:21;-0.90;99.90
21805;DHT22;11064;47.102;15.452;2023-01-19T17:01:49;-0.90;99.90
21805;DHT22;11064;47.102;15.452;2023-01-19T17:04:16;-0.80;99.90
21805;DHT22;11064;47.102;15.452;2023-01-19T17:06:42;-0.60;99.90
21805;DHT22;11064;47.102;15.452;2023-01-19T17:09:23;-0.50;99.90
21805;DHT22;11064;47.102;15.452;2023-01-19T17:11:49;-0.40;99.90
21805;DHT22;11064;47.102;15.452;2023-01-19T17:14:17;-0.30;99.90
21805;DHT22;11064;47.102;15.452;2023-01-19T17:16:48;-0.30;99.90
21805;DHT22;11064;47.102;15.452;2023-01-19T17:19:16;-0.40;99.90
21805;DHT22;11064;47.102;15.452;2023-01-19T17:21:46;-0.60;99.90
21805;DHT22;11064;47.102;15.452;2023-01-19T17:24:16;-0.60;99.90
21805;DHT22;11064;47.102;15.452;2023-01-19T17:26:44;-0.60;99.90
21805;DHT22;11064;47.102;15.452;2023-01-19T17:29:14;-0.50;99.90
21805;DHT22;11064;47.102;15.452;2023-01-19T17:31:40;-0.50;99.90
21805;DHT22;11064;47.102;15.452;2023-01-19T17:34:06;-0.40;99.90
21805;DHT22;11064;47.102;15.452;2023-01-19T17:36:35;-0.40;99.90
21805;DHT22;11064;47.102;15.452;2023-01-19T17:39:08;-0.40;99.90
21805;DHT22;11064;47.102;15.452;2023-01-19T17:41:36;-0.30;99.90
21805;DHT22;11064;47.102;15.452;2023-01-19T17:44:04;-0.40;99.90
21805;DHT22;11064;47.102;15.452;2023-01-19T17:46:32;-0.40;99.90
21805;DHT22;11064;47.102;15.452;2023-01-19T17:49:01;-0.40;99.90
21805;DHT22;11064;47.102;15.452;2023-01-19T17:51:29;-0.50;99.90
21805;DHT22;11064;47.102;15.452;2023-01-19T17:53:55;-0.60;99.90
21805;DHT22;11064;47.102;15.452;2023-01-19T17:56:27;-0.70;99.90
21805;DHT22;11064;47.102;15.452;2023-01-19T17:58:58;-0.90;99.90
21805;DHT22;11064;47.102;15.452;2023-01-19T18:01:30;-1.00;99.90
21805;DHT22;11064;47.102;15.452;2023-01-19T18:03:58;-1.00;99.90
21805;DHT22;11064;47.102;15.452;2023-01-19T18:06:26;-1.10;99.90
21805;DHT22;11064;47.102;15.452;2023-01-19T18:08:51;-1.20;99.90
21805;DHT22;11064;47.102;15.452;2023-01-19T18:11:20;-1.30;99.90
21805;DHT22;11064;47.102;15.452;2023-01-19T18:13:49;-1.40;99.90
21805;DHT22;11064;47.102;15.452;2023-01-19T18:16:22;-1.50;99.90
21805;DHT22;11064;47.102;15.452;2023-01-19T18:18:50;-1.70;99.90
21805;DHT22;11064;47.102;15.452;2023-01-19T18:21:20;-1.70;99.90
21805;DHT22;11064;47.102;15.452;2023-01-19T18:23:48;-1.80;99.90
21805;DHT22;11064;47.102;15.452;2023-01-19T18:26:19;-1.90;99.90
21805;DHT22;11064;47.102;15.452;2023-01-19T18:28:46;-1.90;99.90
21805;DHT22;11064;47.102;15.452;2023-01-19T18:31:15;-1.90;99.90
21805;DHT22;11064;47.102;15.452;2023-01-19T18:33:43;-2.00;99.90
21805;DHT22;11064;47.102;15.452;2023-01-19T18:36:09;-2.00;99.90
21805;DHT22;11064;47.102;15.452;2023-01-19T18:38:36;-1.90;99.90
21805;DHT22;11064;47.102;15.452;2023-01-19T18:41:06;-1.90;99.90
21805;DHT22;11064;47.102;15.452;2023-01-19T18:43:32;-1.60;99.90
21805;DHT22;11064;47.102;15.452;2023-01-19T18:45:59;-1.30;99.90
21805;DHT22;11064;47.102;15.452;2023-01-19T18:48:25;-1.30;99.90
21805;DHT22;11064;47.102;15.452;2023-01-19T18:50:51;-1.30;99.90
21805;DHT22;11064;47.102;15.452;2023-01-19T18:53:17;-1.30;99.90
21805;DHT22;11064;47.102;15.452;2023-01-19T18:55:51;-1.30;99.90
21805;DHT22;11064;47.102;15.452;2023-01-19T18:58:17;-1.30;99.90
21805;DHT22;11064;47.102;15.452;2023-01-19T19:00:45;-1.20;99.90
21805;DHT22;11064;47.102;15.452;2023-01-19T19:03:12;-1.10;99.90
21805;DHT22;11064;47.102;15.452;2023-01-19T19:05:40;-1.10;99.90
21805;DHT22;11064;47.102;15.452;2023-01-19T19:08:07;-1.00;99.90
21805;DHT22;11064;47.102;15.452;2023-01-19T19:10:34;-0.80;99.90
21805;DHT22;11064;47.102;15.452;2023-01-19T19:13:01;-0.80;99.90
21805;DHT22;11064;47.102;15.452;2023-01-19T19:15:27;-0.80;99.90
21805;DHT22;11064;47.102;15.452;2023-01-19T19:17:54;-0.80;99.90
21805;DHT22;11064;47.102;15.452;2023-01-19T19:20:20;-0.70;99.90
21805;DHT22;11064;47.102;15.452;2023-01-19T19:22:48;-0.60;99.90
21805;DHT22;11064;47.102;15.452;2023-01-19T19:25:18;-0.60;99.90
21805;DHT22;11064;47.102;15.452;2023-01-19T19:27:44;-0.60;99.90
21805;DHT22;11064;47.102;15.452;2023-01-19T19:30:13;-0.50;99.90
21805;DHT22;11064;47.102;15.452;2023-01-19T19:32:39;-0.50;99.90
21805;DHT22;11064;47.102;15.452;2023-01-19T19:35:06;-0.50;99.90
21805;DHT22;11064;47.102;15.452;2023-01-19T19:37:32;-0.40;99.90
21805;DHT22;11064;47.102;15.452;2023-01-19T19:39:58;-0.40;99.90
21805;DHT22;11064;47.102;15.452;2023-01-19T19:42:25;-0.40;99.90
21805;DHT22;11064;47.102;15.452;2023-01-19T19:44:53;-0.40;99.90
21805;DHT22;11064;47.102;15.452;2023-01-19T19:47:19;-0.40;99.90
21805;DHT22;11064;47.102;15.452;2023-01-19T19:49:46;-0.40;99.90
21805;DHT22;11064;47.102;15.452;2023-01-19T19:52:12;-0.40;99.90
21805;DHT22;11064;47.102;15.452;2023-01-19T19:54:39;-0.40;99.90
21805;DHT22;11064;47.102;15.452;2023-01-19T19:57:05;-0.40;99.90
21805;DHT22;11064;47.102;15.452;2023-01-19T19:59:31;-0.40;99.90
21805;DHT22;11064;47.102;15.452;2023-01-19T20:01:57;-0.50;99.90
21805;DHT22;11064;47.102;15.452;2023-01-19T20:04:23;-0.50;99.90
21805;DHT22;11064;47.102;15.452;2023-01-19T20:06:50;-0.60;99.90
21805;DHT22;11064;47.102;15.452;2023-01-19T20:09:16;-0.60;99.90
21805;DHT22;11064;47.102;15.452;2023-01-19T20:11:45;-0.60;99.90
21805;DHT22;11064;47.102;15.452;2023-01-19T20:14:13;-0.60;99.90
21805;DHT22;11064;47.102;15.452;2023-01-19T20:16:41;-0.50;99.90
21805;DHT22;11064;47.102;15.452;2023-01-19T20:19:10;-0.50;99.90
21805;DHT22;11064;47.102;15.452;2023-01-19T20:21:39;-0.50;99.90
21805;DHT22;11064;47.102;15.452;2023-01-19T20:24:18;-0.50;99.90
21805;DHT22;11064;47.102;15.452;2023-01-19T20:26:48;-0.50;99.90
21805;DHT22;11064;47.102;15.452;2023-01-19T20:29:15;-0.40;99.90
21805;DHT22;11064;47.102;15.452;2023-01-19T20:31:45;-0.40;99.90
21805;DHT22;11064;47.102;15.452;2023-01-19T20:34:14;-0.40;99.90
21805;DHT22;11064;47.102;15.452;2023-01-19T20:36:41;-0.40;99.90
21805;DHT22;11064;47.102;15.452;2023-01-19T20:39:10;-0.40;99.90
21805;DHT22;11064;47.102;15.452;2023-01-19T20:41:39;-0.40;99.90
21805;DHT22;11064;47.102;15.452;2023-01-19T20:44:11;-0.40;99.90
21805;DHT22;11064;47.102;15.452;2023-01-19T20:46:38;-0.40;99.90
21805;DHT22;11064;47.102;15.452;2023-01-19T20:49:04;-0.50;99.90
21805;DHT22;11064;47.102;15.452;2023-01-19T20:51:31;-0.50;99.90
21805;DHT22;11064;47.102;15.452;2023-01-19T20:53:58;-0.50;99.90
21805;DHT22;11064;47.102;15.452;2023-01-19T20:56:24;-0.50;99.90
21805;DHT22;11064;47.102;15.452;2023-01-19T20:58:50;-0.50;99.90
21805;DHT22;11064;47.102;15.452;2023-01-19T21:01:19;-0.50;99.90
21805;DHT22;11064;47.102;15.452;2023-01-19T21:03:45;-0.50;99.90
21805;DHT22;11064;47.102;15.452;2023-01-19T21:06:14;-0.60;99.90
21805;DHT22;11064;47.102;15.452;2023-01-19T21:08:41;-0.50;99.90
21805;DHT22;11064;47.102;15.452;2023-01-19T21:11:08;-0.50;99.90
21805;DHT22;11064;47.102;15.452;2023-01-19T21:13:34;-0.60;99.90
21805;DHT22;11064;47.102;15.452;2023-01-19T21:16:01;-0.70;99.90
21805;DHT22;11064;47.102;15.452;2023-01-19T21:18:27;-0.70;99.90
21805;DHT22;11064;47.102;15.452;2023-01-19T21:20:54;-0.80;99.90
21805;DHT22;11064;47.102;15.452;2023-01-19T21:23:39;-0.80;99.90